createdAt,value
2023-04-12T00:01:56.699Z,99730.25
2023-04-12T00:05:03.122Z,99724.78
2023-04-12T00:08:06.360Z,99733.88
2023-04-12T00:11:21.637Z,99744.44
2023-04-12T00:14:25.179Z,99745.91
2023-04-12T00:17:28.583Z,99749.66
2023-04-12T00:20:31.701Z,99753.63
2023-04-12T00:23:34.437Z,99746.19
2023-04-12T00:26:37.330Z,99752.41
2023-04-12T00:29:40.621Z,99750.69
2023-04-12T00:32:43.434Z,99749.19
2023-04-12T00:35:46.592Z,99735.25
2023-04-12T00:38:51.375Z,99751.66
2023-04-12T00:41:57.072Z,99750.25
2023-04-12T00:44:59.949Z,99750.25
2023-04-12T00:48:03.908Z,99755.31
2023-04-12T00:51:07.986Z,99745.47
2023-04-12T00:54:14.007Z,99740.81
2023-04-12T00:57:17.083Z,99732.53
2023-04-12T01:00:19.895Z,99720.09
2023-04-12T01:03:28.073Z,99728.72
2023-04-12T01:06:44.835Z,99727.66
2023-04-12T01:10:04.376Z,99724.66
2023-04-12T01:13:26.101Z,99733.28
2023-04-12T01:16:47.769Z,99721.91
2023-04-12T01:20:13.743Z,99723.25
2023-04-12T01:23:44.777Z,99723.25
2023-04-12T01:26:49.108Z,99738.19
2023-04-12T01:29:52.031Z,99723.34
2023-04-12T01:32:56.920Z,99720.84
2023-04-12T01:36:01.014Z,99741.91
2023-04-12T01:39:05.144Z,99742.88
2023-04-12T01:42:07.740Z,99736.16
2023-04-12T01:45:10.578Z,99725.38
2023-04-12T01:48:13.691Z,99723.00
2023-04-12T01:51:42.299Z,99730.66
2023-04-12T01:54:51.402Z,99716.06
2023-04-12T01:57:54.508Z,99711.16
2023-04-12T02:00:59.972Z,99720.84
2023-04-12T02:04:04.785Z,99717.03
2023-04-12T02:07:07.628Z,99714.63
2023-04-12T02:10:15.228Z,99719.66
2023-04-12T02:13:18.392Z,99719.88
2023-04-12T02:16:23.272Z,99721.53
2023-04-12T02:19:25.817Z,99714.13
2023-04-12T02:22:29.424Z,99732.44
2023-04-12T02:25:33.449Z,99723.00
2023-04-12T02:28:39.493Z,99719.13
2023-04-12T02:31:45.420Z,99726.34
2023-04-12T02:34:51.535Z,99729.94
2023-04-12T02:37:56.191Z,99724.19
2023-04-12T02:41:03.062Z,99720.13
2023-04-12T02:44:07.705Z,99728.75
2023-04-12T02:47:10.957Z,99724.31
2023-04-12T02:50:15.605Z,99731.84
2023-04-12T02:53:27.816Z,99716.75
2023-04-12T02:56:52.684Z,99712.47
2023-04-12T03:00:13.381Z,99715.81
2023-04-12T03:03:26.188Z,99717.25
2023-04-12T03:06:32.223Z,99727.53
2023-04-12T03:09:38.704Z,99718.91
2023-04-12T03:12:41.631Z,99720.97
2023-04-12T03:15:57.289Z,99725.72
2023-04-12T03:19:07.236Z,99714.34
2023-04-12T03:22:11.011Z,99716.50
2023-04-12T03:25:20.096Z,99721.78
2023-04-12T03:28:29.329Z,99720.69
2023-04-12T03:31:32.892Z,99706.22
2023-04-12T03:34:40.913Z,99693.06
2023-04-12T03:37:48.145Z,99694.25
2023-04-12T03:40:51.173Z,99688.75
2023-04-12T03:44:01.676Z,99692.13
2023-04-12T03:47:05.416Z,99690.31
2023-04-12T03:50:12.590Z,99695.69
2023-04-12T03:53:21.474Z,99687.56
2023-04-12T03:56:24.561Z,99684.19
2023-04-12T03:59:30.867Z,99688.03
2023-04-12T04:02:34.708Z,99682.91
2023-04-12T04:05:38.490Z,99672.72
2023-04-12T04:08:42.590Z,99684.69
2023-04-12T04:11:45.880Z,99688.03
2023-04-12T04:14:49.231Z,99691.88
2023-04-12T04:18:03.326Z,99685.91
2023-04-12T04:21:07.536Z,99693.03
2023-04-12T04:24:11.583Z,99684.81
2023-04-12T04:27:20.581Z,99694.25
2023-04-12T04:30:24.234Z,99694.50
2023-04-12T04:33:26.693Z,99695.69
2023-04-12T04:36:37.457Z,99701.69
2023-04-12T04:39:41.554Z,99696.91
2023-04-12T04:42:46.454Z,99683.75
2023-04-12T04:45:54.701Z,99689.00
2023-04-12T04:48:58.734Z,99692.56
2023-04-12T04:52:01.367Z,99684.91
2023-04-12T04:55:06.926Z,99678.16
2023-04-12T04:58:13.566Z,99679.50
2023-04-12T05:01:17.069Z,99671.41
2023-04-12T05:04:22.801Z,99678.56
2023-04-12T05:07:26.240Z,99685.00
2023-04-12T05:10:29.817Z,99680.88
2023-04-12T05:13:35.939Z,99671.78
2023-04-12T05:16:38.476Z,99671.28
2023-04-12T05:19:43.954Z,99666.44
2023-04-12T05:22:47.178Z,99669.53
2023-04-12T05:25:50.201Z,99667.56
2023-04-12T05:28:55.574Z,99673.31
2023-04-12T05:31:59.514Z,99656.50
2023-04-12T05:35:02.912Z,99670.41
2023-04-12T05:38:05.935Z,99672.69
2023-04-12T05:41:09.206Z,99680.38
2023-04-12T05:44:12.281Z,99684.44
2023-04-12T05:47:14.796Z,99690.03
2023-04-12T05:50:17.901Z,99693.78
2023-04-12T05:53:21.989Z,99695.91
2023-04-12T05:56:24.468Z,99698.97
2023-04-12T05:59:27.051Z,99702.38
2023-04-12T06:02:30.934Z,99698.28
2023-04-12T06:05:34.289Z,99713.88
2023-04-12T06:08:38.178Z,99714.84
2023-04-12T06:11:41.024Z,99715.03
2023-04-12T06:14:43.632Z,99717.84
2023-04-12T06:17:46.599Z,99720.06
2023-04-12T06:20:49.161Z,99714.09
2023-04-12T06:23:52.181Z,99716.59
2023-04-12T06:26:54.670Z,99713.88
2023-04-12T06:29:57.542Z,99725.16
2023-04-12T06:33:00.663Z,99727.13
2023-04-12T06:36:03.744Z,99726.94
2023-04-12T06:39:06.836Z,99726.81
2023-04-12T06:42:09.415Z,99719.94
2023-04-12T06:45:15.530Z,99722.03
2023-04-12T06:48:18.599Z,99718.56
2023-04-12T06:51:21.222Z,99704.09
2023-04-12T06:54:24.163Z,99718.16
2023-04-12T06:57:26.848Z,99714.03
2023-04-12T07:00:29.585Z,99719.00
2023-04-12T07:03:33.479Z,99719.16
2023-04-12T07:06:36.343Z,99718.03
2023-04-12T07:09:38.941Z,99710.16
2023-04-12T07:12:42.363Z,99720.06
2023-04-12T07:15:45.065Z,99724.09
2023-04-12T07:18:48.499Z,99714.59
2023-04-12T07:21:51.331Z,99714.03
2023-04-12T07:24:53.933Z,99708.88
2023-04-12T07:27:56.741Z,99706.06
2023-04-12T07:30:59.241Z,99712.59
2023-04-12T07:34:02.102Z,99715.81
2023-04-12T07:37:04.979Z,99702.69
2023-04-12T07:40:08.028Z,99716.63
2023-04-12T07:43:10.578Z,99710.34
2023-04-12T07:46:13.064Z,99711.44
2023-04-12T07:49:15.793Z,99715.19
2023-04-12T07:52:18.626Z,99708.44
2023-04-12T07:55:21.503Z,99711.53
2023-04-12T07:58:24.989Z,99714.16
2023-04-12T08:01:27.673Z,99717.28
2023-04-12T08:04:30.279Z,99716.50
2023-04-12T08:07:32.935Z,99713.81
2023-04-12T08:10:37.128Z,99716.22
2023-04-12T08:13:39.847Z,99706.06
2023-04-12T08:16:42.650Z,99708.66
2023-04-12T08:19:46.377Z,99713.81
2023-04-12T08:22:49.525Z,99707.28
2023-04-12T08:25:59.461Z,99706.13
2023-04-12T08:29:02.104Z,99714.50
2023-04-12T08:32:05.325Z,99713.31
2023-04-12T08:35:08.359Z,99713.78
2023-04-12T08:38:10.905Z,99696.44
2023-04-12T08:41:14.283Z,99716.94
2023-04-12T08:44:18.261Z,99700.88
2023-04-12T08:47:21.197Z,99695.22
2023-04-12T08:50:25.850Z,99687.66
2023-04-12T08:53:28.476Z,99693.81
2023-04-12T08:56:32.024Z,99689.81
2023-04-12T08:59:39.288Z,99686.16
2023-04-12T09:02:46.494Z,99695.44
2023-04-12T09:05:49.988Z,99684.38
2023-04-12T09:08:54.941Z,99679.78
2023-04-12T09:12:07.050Z,99673.72
2023-04-12T09:15:09.501Z,99674.38
2023-04-12T09:18:16.684Z,99684.00
2023-04-12T09:21:20.278Z,99687.47
2023-04-12T09:24:25.972Z,99673.50
2023-04-12T09:27:29.802Z,99657.66
2023-04-12T09:30:41.642Z,99661.03
2023-04-12T09:33:46.172Z,99670.53
2023-04-12T09:36:48.709Z,99690.00
2023-04-12T09:40:10.413Z,99704.94
2023-04-12T09:43:13.147Z,99716.38
2023-04-12T09:46:16.633Z,99714.81
2023-04-12T09:49:19.316Z,99725.72
2023-04-12T09:52:21.938Z,99725.09
2023-04-12T09:55:27.377Z,99732.06
2023-04-12T09:58:33.761Z,99613.22
2023-04-12T10:01:39.679Z,99702.34
2023-04-12T10:04:43.412Z,99680.06
2023-04-12T10:07:47.541Z,99648.34
2023-04-12T10:10:51.487Z,99632.53
2023-04-12T10:13:56.627Z,99628.69
2023-04-12T10:17:01.848Z,99607.25
2023-04-12T10:20:06.008Z,99610.06
2023-04-12T10:23:09.598Z,99604.41
2023-04-12T10:26:12.437Z,99601.53
2023-04-12T10:29:34.707Z,99598.56
2023-04-12T10:32:37.619Z,99589.66
2023-04-12T10:35:52.446Z,99593.75
2023-04-12T10:39:10.008Z,99592.34
2023-04-12T10:42:24.685Z,99583.06
2023-04-12T10:45:34.212Z,99582.09
2023-04-12T10:48:38.622Z,99558.78
2023-04-12T10:52:04.285Z,99564.88
2023-04-12T10:55:30.200Z,99571.09
2023-04-12T10:58:47.828Z,99569.28
2023-04-12T11:02:09.483Z,99568.16
2023-04-12T11:05:14.441Z,99557.22
2023-04-12T11:08:32.179Z,99555.38
2023-04-12T11:12:04.842Z,99564.28
2023-04-12T11:15:12.780Z,99557.09
2023-04-12T11:18:27.095Z,99544.44
2023-04-12T11:21:30.800Z,99544.56
2023-04-12T11:24:33.760Z,99541.44
2023-04-12T11:27:38.232Z,99538.44
2023-04-12T11:30:50.968Z,99529.81
2023-04-12T11:33:53.757Z,99538.97
2023-04-12T11:36:56.440Z,99537.88
2023-04-12T11:39:59.251Z,99531.28
2023-04-12T11:43:01.837Z,99521.53
2023-04-12T11:46:05.061Z,99519.66
2023-04-12T11:49:07.776Z,99523.84
2023-04-12T11:52:10.402Z,99518.25
2023-04-12T11:55:12.969Z,99511.13
2023-04-12T11:58:16.177Z,99508.00
2023-04-12T12:01:20.767Z,99510.75
2023-04-12T12:04:24.268Z,99507.75
2023-04-12T12:07:27.873Z,99500.06
2023-04-12T12:10:42.070Z,99491.22
2023-04-12T12:13:53.922Z,99491.31
2023-04-12T12:16:58.512Z,99478.56
2023-04-12T12:20:02.327Z,99488.09
2023-04-12T12:23:05.085Z,99485.59
2023-04-12T12:26:18.527Z,99480.66
2023-04-12T12:29:24.438Z,99471.63
2023-04-12T12:32:33.486Z,99470.59
2023-04-12T12:35:36.898Z,99467.06
2023-04-12T12:38:42.884Z,99449.00
2023-04-12T12:41:54.682Z,99463.00
2023-04-12T12:44:57.155Z,99450.28
2023-04-12T12:48:04.472Z,99449.25
2023-04-12T12:51:09.201Z,99456.66
2023-04-12T12:54:12.297Z,99458.16
2023-04-12T12:57:14.828Z,99453.50
2023-04-12T13:00:19.451Z,99458.28
2023-04-12T13:03:22.378Z,99446.38
2023-04-12T13:06:28.180Z,99450.75
2023-04-12T13:09:31.652Z,99444.38
2023-04-12T13:12:34.178Z,99435.00
2023-04-12T13:15:36.830Z,99438.88
2023-04-12T13:18:39.450Z,99431.84
2023-04-12T13:21:41.980Z,99428.06
2023-04-12T13:24:44.594Z,99434.34
2023-04-12T13:27:51.815Z,99430.78
2023-04-12T13:30:54.489Z,99428.94
2023-04-12T13:33:57.470Z,99436.47
2023-04-12T13:37:01.047Z,99425.50
2023-04-12T13:40:04.676Z,99421.00
2023-04-12T13:43:08.779Z,99403.09
2023-04-12T13:46:13.049Z,99411.28
2023-04-12T13:49:16.294Z,99411.66
2023-04-12T13:52:18.887Z,99412.81
2023-04-12T13:55:21.637Z,99413.06
2023-04-12T13:58:25.890Z,99415.09
2023-04-12T14:01:28.585Z,99416.31
2023-04-12T14:04:31.702Z,99396.41
2023-04-12T14:07:34.401Z,99404.53
2023-04-12T14:10:37.074Z,99406.19
2023-04-12T14:13:39.715Z,99404.19
2023-04-12T14:16:42.434Z,99409.75
2023-04-12T14:19:45.086Z,99397.97
2023-04-12T14:22:47.651Z,99403.81
2023-04-12T14:25:50.257Z,99398.09
2023-04-12T14:28:53.100Z,99392.38
2023-04-12T14:31:55.743Z,99390.22
2023-04-12T14:34:58.341Z,99407.50
2023-04-12T14:38:01.156Z,99417.31
2023-04-12T14:41:09.402Z,99418.13
2023-04-12T14:44:12.281Z,99420.31
2023-04-12T14:47:14.849Z,99419.41
2023-04-12T14:50:17.603Z,99417.22
2023-04-12T14:53:21.189Z,99413.34
2023-04-12T14:56:28.669Z,99414.44
2023-04-12T14:59:32.393Z,99409.59
2023-04-12T15:02:35.207Z,99404.06
2023-04-12T15:05:38.010Z,99411.25
2023-04-12T15:08:43.185Z,99413.31
2023-04-12T15:11:49.956Z,99409.94
2023-04-12T15:14:58.271Z,99412.72
2023-04-12T15:18:03.481Z,99416.94
2023-04-12T15:21:08.761Z,99418.72
2023-04-12T15:24:11.522Z,99409.63
2023-04-12T15:27:14.120Z,99414.00
2023-04-12T15:30:17.933Z,99422.28
2023-04-12T15:33:23.828Z,99401.59
2023-04-12T15:36:33.743Z,99407.81
2023-04-12T15:39:36.842Z,99418.16
2023-04-12T15:42:41.865Z,99426.03
2023-04-12T15:45:44.978Z,99426.84
2023-04-12T15:48:48.163Z,99418.16
2023-04-12T15:51:51.612Z,99421.25
2023-04-12T15:54:54.168Z,99412.38
2023-04-12T15:57:57.214Z,99416.94
2023-04-12T16:00:59.738Z,99427.03
2023-04-12T16:04:03.382Z,99424.31
2023-04-12T16:07:06.210Z,99417.06
2023-04-12T16:10:09.506Z,99410.22
2023-04-12T16:13:12.622Z,99420.06
2023-04-12T16:16:17.840Z,99421.88
2023-04-12T16:19:20.488Z,99412.66
2023-04-12T16:22:23.424Z,99412.88
2023-04-12T16:25:28.167Z,99413.53
2023-04-12T16:28:31.479Z,99409.19
2023-04-12T16:31:35.630Z,99401.63
2023-04-12T16:34:41.329Z,99396.59
2023-04-12T16:37:45.537Z,99406.03
2023-04-12T16:40:48.217Z,99400.25
2023-04-12T16:43:53.847Z,99397.59
2023-04-12T16:46:56.897Z,99396.88
2023-04-12T16:50:09.968Z,99392.56
2023-04-12T16:53:15.122Z,99394.75
2023-04-12T16:56:18.513Z,99398.91
2023-04-12T16:59:21.736Z,99393.91
2023-04-12T17:02:25.514Z,99414.38
2023-04-12T17:05:29.861Z,99407.72
2023-04-12T17:08:32.854Z,99411.31
2023-04-12T17:11:36.485Z,99422.31
2023-04-12T17:14:39.910Z,99406.09
2023-04-12T17:17:49.389Z,99407.41
2023-04-12T17:20:52.487Z,99405.50
2023-04-12T17:23:58.641Z,99411.97
2023-04-12T17:27:02.675Z,99417.00
2023-04-12T17:30:06.722Z,99424.50
2023-04-12T17:33:09.434Z,99413.38
2023-04-12T17:36:12.566Z,99411.19
2023-04-12T17:39:16.598Z,99412.25
2023-04-12T17:42:21.392Z,99403.84
2023-04-12T17:45:26.127Z,99405.84
2023-04-12T17:48:33.006Z,99401.03
2023-04-12T17:51:36.264Z,99411.72
2023-04-12T17:54:39.579Z,99408.69
2023-04-12T17:57:44.767Z,99407.66
2023-04-12T18:00:48.368Z,99410.34
2023-04-12T18:03:51.861Z,99417.03
2023-04-12T18:06:57.011Z,99425.03
2023-04-12T18:10:02.748Z,99422.22
2023-04-12T18:13:06.292Z,99420.19
2023-04-12T18:16:09.447Z,99407.41
2023-04-12T18:19:14.162Z,99407.38
2023-04-12T18:22:19.229Z,99410.38
2023-04-12T18:25:24.350Z,99416.06
2023-04-12T18:28:32.087Z,99416.06
2023-04-12T18:31:39.134Z,99407.78
2023-04-12T18:34:42.907Z,99414.47
2023-04-12T18:37:45.824Z,99427.78
2023-04-12T18:40:50.299Z,99425.44
2023-04-12T18:43:54.353Z,99427.78
2023-04-12T18:46:58.139Z,99433.13
2023-04-12T18:50:01.174Z,99427.47
2023-04-12T18:53:06.469Z,99433.94
2023-04-12T18:56:14.527Z,99429.41
2023-04-12T18:59:18.793Z,99435.41
2023-04-12T19:02:24.873Z,99434.09
2023-04-12T19:05:28.747Z,99439.94
2023-04-12T19:08:32.340Z,99438.47
2023-04-12T19:11:37.328Z,99439.59
2023-04-12T19:14:41.077Z,99444.41
2023-04-12T19:17:45.314Z,99436.78
2023-04-12T19:20:50.512Z,99440.91
2023-04-12T19:23:55.945Z,99440.09
2023-04-12T19:27:01.089Z,99446.22
2023-04-12T19:30:04.835Z,99444.72
2023-04-12T19:33:09.158Z,99434.69
2023-04-12T19:39:29.502Z,99440.84
2023-04-12T19:42:33.233Z,99447.00
2023-04-12T19:45:36.813Z,99450.94
2023-04-12T19:48:41.510Z,99445.16
2023-04-12T19:51:48.382Z,99431.38
2023-04-12T19:54:54.717Z,99442.00
2023-04-12T19:57:59.497Z,99438.63
2023-04-12T20:01:05.005Z,99419.63
2023-04-12T20:04:10.266Z,99428.13
2023-04-12T20:07:13.947Z,99434.81
2023-04-12T20:10:18.745Z,99432.97
2023-04-12T20:13:21.803Z,99420.34
2023-04-12T20:16:25.175Z,99423.31
2023-04-12T20:19:28.855Z,99421.84
2023-04-12T20:22:33.389Z,99425.97
2023-04-12T20:25:38.582Z,99421.72
2023-04-12T20:28:41.719Z,99410.03
2023-04-12T20:31:47.723Z,99419.34
2023-04-12T20:34:51.493Z,99419.28
2023-04-12T20:37:54.661Z,99424.56
2023-04-12T20:40:59.859Z,99416.91
2023-04-12T20:44:03.599Z,99420.03
2023-04-12T20:47:07.437Z,99411.09
2023-04-12T20:50:11.745Z,99399.31
2023-04-12T20:53:17.687Z,99407.25
2023-04-12T20:56:20.615Z,99409.34
2023-04-12T20:59:30.862Z,99407.81
2023-04-12T21:02:33.846Z,99405.53
2023-04-12T21:05:37.741Z,99401.06
2023-04-12T21:08:42.625Z,99398.25
2023-04-12T21:11:45.225Z,99397.00
2023-04-12T21:14:50.442Z,99396.78
2023-04-12T21:17:53.085Z,99394.34
2023-04-12T21:20:59.344Z,99407.66
2023-04-12T21:24:03.941Z,99401.16
2023-04-12T21:27:10.134Z,99413.56
2023-04-12T21:30:13.921Z,99413.84
2023-04-12T21:33:21.903Z,99402.38
2023-04-12T21:36:27.897Z,99409.16
2023-04-12T21:39:30.638Z,99412.50
2023-04-12T21:42:34.525Z,99406.69
2023-04-12T21:45:37.332Z,99400.50
2023-04-12T21:48:39.920Z,99391.88
2023-04-12T21:51:46.176Z,99384.00
2023-04-12T21:54:49.128Z,99384.13
2023-04-12T21:57:52.386Z,99380.22
2023-04-12T22:00:55.750Z,99366.59
2023-04-12T22:03:58.667Z,99365.41
2023-04-12T22:07:05.265Z,99361.19
2023-04-12T22:10:12.454Z,99377.09
2023-04-12T22:13:15.930Z,99371.09
2023-04-12T22:16:18.515Z,99370.13
2023-04-12T22:19:21.375Z,99374.94
2023-04-12T22:22:29.948Z,99368.41
2023-04-12T22:25:33.656Z,99367.88
2023-04-12T22:28:38.139Z,99363.19
2023-04-12T22:31:41.026Z,99363.19
2023-04-12T22:34:43.846Z,99370.38
2023-04-12T22:37:46.569Z,99364.31
2023-04-12T22:40:49.481Z,99358.03
2023-04-12T22:44:02.952Z,99356.00
2023-04-12T22:47:09.078Z,99349.47
2023-04-12T22:50:12.964Z,99360.75
2023-04-12T22:53:15.897Z,99374.09
2023-04-12T22:56:18.869Z,99353.41
2023-04-12T22:59:23.055Z,99361.19
2023-04-12T23:02:25.884Z,99357.16
2023-04-12T23:05:28.940Z,99359.81
2023-04-12T23:08:32.294Z,99353.22
2023-04-12T23:11:36.309Z,99358.88
2023-04-12T23:14:39.298Z,99358.25
2023-04-12T23:17:42.216Z,99357.22
2023-04-12T23:20:44.954Z,99354.44
2023-04-12T23:23:47.554Z,99356.31
2023-04-12T23:26:50.251Z,99349.50
2023-04-12T23:29:52.958Z,99342.75
2023-04-12T23:32:58.485Z,99348.06
2023-04-12T23:36:05.204Z,99339.47
2023-04-12T23:39:09.462Z,99334.88
2023-04-12T23:42:12.132Z,99328.56
2023-04-12T23:45:14.984Z,99321.13
2023-04-12T23:48:17.591Z,99327.06
2023-04-12T23:51:20.204Z,99321.78
2023-04-12T23:54:23.643Z,99323.25
2023-04-12T23:57:26.407Z,99307.50
